Time;durP1;ratioP1;P1;durP2;ratioP2;P2;SDS_P1;SDS_P2;PMS_P1;PMS_P2;Temp;Humidity;BMP_temperature;BMP_pressure;BME280_temperature;BME280_humidity;BME280_pressure;Samples;Min_cycle;Max_cycle;Signal;HPM_P1;HPM_P2
2023/05/20 00:01:01;;;;;;;11.90;7.37;;;16.30;98.60;;;;;;5103769;28;20213;-65
2023/05/20 00:03:28;;;;;;;13.30;7.27;;;16.30;98.60;;;;;;5106863;28;20217;-65
2023/05/20 00:06:03;;;;;;;15.80;7.50;;;16.30;98.60;;;;;;5089512;28;20283;-64
2023/05/20 00:08:30;;;;;;;9.77;7.00;;;16.30;98.60;;;;;;5091626;28;20655;-64
2023/05/20 00:10:57;;;;;;;11.23;7.43;;;16.30;98.60;;;;;;5102075;28;20201;-64
2023/05/20 00:13:24;;;;;;;13.87;7.33;;;16.30;98.60;;;;;;5098566;28;20667;-64
2023/05/20 00:15:52;;;;;;;9.47;6.77;;;16.30;98.60;;;;;;5102414;28;20280;-64
2023/05/20 00:18:19;;;;;;;9.50;6.63;;;16.30;98.50;;;;;;5106869;28;20648;-64
2023/05/20 00:20:48;;;;;;;11.93;7.50;;;16.30;98.50;;;;;;5102959;28;20246;-64
2023/05/20 00:23:16;;;;;;;11.73;7.50;;;16.30;98.50;;;;;;5100871;28;20206;-65
2023/05/20 00:25:43;;;;;;;12.23;7.23;;;16.30;98.50;;;;;;5100912;28;20560;-65
2023/05/20 00:28:10;;;;;;;15.53;6.70;;;16.30;98.40;;;;;;5100834;28;20205;-65
2023/05/20 00:30:40;;;;;;;9.63;6.83;;;16.30;98.40;;;;;;5099782;28;20216;-65
2023/05/20 00:33:10;;;;;;;18.20;7.03;;;16.30;98.40;;;;;;5103997;28;20284;-64
2023/05/20 00:35:37;;;;;;;9.60;6.97;;;16.40;98.50;;;;;;5104071;28;20271;-64
2023/05/20 00:38:04;;;;;;;9.60;7.17;;;16.40;98.50;;;;;;5105766;28;20209;-65
2023/05/20 00:40:34;;;;;;;8.70;6.70;;;16.40;98.50;;;;;;5103611;28;20198;-65
2023/05/20 00:43:01;;;;;;;10.60;7.07;;;16.30;98.50;;;;;;5090021;28;20592;-65
2023/05/20 00:45:30;;;;;;;11.53;8.40;;;16.30;98.60;;;;;;5087044;28;20189;-65
2023/05/20 00:48:02;;;;;;;10.17;7.27;;;16.30;98.60;;;;;;5102763;28;20200;-64
2023/05/20 00:50:30;;;;;;;15.60;7.27;;;16.30;98.60;;;;;;5108607;28;20216;-64
2023/05/20 00:53:01;;;;;;;12.10;7.83;;;16.30;98.70;;;;;;5083019;28;20292;-64
2023/05/20 00:55:28;;;;;;;10.80;7.93;;;16.30;98.70;;;;;;5092785;28;20581;-64
2023/05/20 00:57:56;;;;;;;13.73;7.27;;;16.30;98.70;;;;;;5080964;28;20234;-64
2023/05/20 01:00:23;;;;;;;15.20;7.93;;;16.30;98.70;;;;;;5105424;28;20627;-64
2023/05/20 01:02:50;;;;;;;13.03;8.03;;;16.30;98.60;;;;;;5101055;28;20218;-64
2023/05/20 01:05:17;;;;;;;14.57;8.67;;;16.30;98.60;;;;;;5093499;28;20190;-65
2023/05/20 01:07:46;;;;;;;12.27;7.97;;;16.30;98.90;;;;;;5102572;28;20294;-65
2023/05/20 01:10:15;;;;;;;14.27;8.10;;;16.30;98.80;;;;;;5101249;28;20230;-65
2023/05/20 01:12:51;;;;;;;10.57;7.40;;;16.30;98.70;;;;;;5102893;28;20201;-64
2023/05/20 01:15:21;;;;;;;14.40;7.63;;;16.30;98.70;;;;;;5092207;28;20208;-64
2023/05/20 01:17:51;;;;;;;12.77;8.20;;;16.30;98.80;;;;;;5103826;28;20212;-64
2023/05/20 01:20:21;;;;;;;10.80;8.43;;;16.30;98.80;;;;;;5090178;28;20204;-64
2023/05/20 01:22:54;;;;;;;13.60;7.93;;;16.20;98.80;;;;;;5106928;28;20205;-65
2023/05/20 01:25:25;;;;;;;13.27;8.50;;;16.20;98.80;;;;;;5096868;28;20731;-64
2023/05/20 01:27:54;;;;;;;9.77;8.47;;;16.20;98.80;;;;;;5103009;28;20568;-64
2023/05/20 01:30:27;;;;;;;9.67;8.17;;;16.20;99.20;;;;;;5088496;28;20231;-64
2023/05/20 01:33:04;;;;;;;14.20;8.13;;;16.20;98.90;;;;;;5102108;28;20285;-64
2023/05/20 01:35:31;;;;;;;14.53;8.30;;;16.20;99.00;;;;;;5098708;28;20548;-64
2023/05/20 01:38:00;;;;;;;17.10;9.07;;;16.20;99.00;;;;;;5092138;28;20251;-64
2023/05/20 01:40:27;;;;;;;14.00;8.00;;;16.20;99.30;;;;;;5086640;28;20252;-64
2023/05/20 01:42:57;;;;;;;8.73;7.57;;;16.20;99.00;;;;;;5101904;28;20205;-64
2023/05/20 01:45:29;;;;;;;13.30;7.50;;;16.10;99.00;;;;;;5085658;28;20225;-64
2023/05/20 01:47:58;;;;;;;19.23;8.03;;;16.20;99.00;;;;;;5095474;28;20215;-64
2023/05/20 01:50:25;;;;;;;12.53;8.10;;;16.20;98.90;;;;;;5085867;28;20201;-64
2023/05/20 01:52:55;;;;;;;11.13;7.70;;;16.10;98.90;;;;;;5088208;28;20210;-64
2023/05/20 01:55:24;;;;;;;13.60;8.37;;;16.10;98.90;;;;;;5101123;28;20507;-64
2023/05/20 01:57:54;;;;;;;12.67;8.00;;;16.10;99.00;;;;;;5104202;28;20208;-64
2023/05/20 02:00:25;;;;;;;14.20;7.47;;;16.10;99.00;;;;;;5096241;28;20197;-65
2023/05/20 02:02:52;;;;;;;11.53;8.20;;;16.10;99.10;;;;;;5090716;28;20193;-65
2023/05/20 02:05:21;;;;;;;12.60;7.93;;;16.10;99.00;;;;;;5088174;28;20205;-64
2023/05/20 02:07:48;;;;;;;12.13;7.93;;;16.10;99.00;;;;;;5103837;28;20258;-64
2023/05/20 02:10:15;;;;;;;16.50;8.30;;;16.10;99.00;;;;;;5093876;28;20216;-64
2023/05/20 02:12:42;;;;;;;12.83;8.27;;;16.10;99.00;;;;;;5084460;28;20196;-64
2023/05/20 02:15:10;;;;;;;15.63;8.10;;;16.10;99.00;;;;;;5092222;28;20219;-64
2023/05/20 02:17:38;;;;;;;11.87;7.30;;;16.10;99.00;;;;;;5089058;28;20230;-65
2023/05/20 02:20:06;;;;;;;17.07;8.13;;;16.10;99.00;;;;;;5086018;28;20265;-65
2023/05/20 02:22:33;;;;;;;16.97;7.60;;;16.10;99.00;;;;;;5091693;28;20186;-65
2023/05/20 02:25:02;;;;;;;13.23;7.50;;;16.00;99.00;;;;;;5085404;28;20203;-65
2023/05/20 02:27:29;;;;;;;13.27;7.73;;;16.10;99.00;;;;;;5100773;28;20262;-65
2023/05/20 02:29:57;;;;;;;12.33;7.23;;;16.10;99.10;;;;;;5092284;28;20212;-64
2023/05/20 02:32:27;;;;;;;14.33;7.50;;;16.10;99.10;;;;;;5088940;28;20201;-65
2023/05/20 02:34:54;;;;;;;14.83;8.23;;;16.00;99.10;;;;;;5089832;28;20207;-64
2023/05/20 02:37:21;;;;;;;10.53;7.13;;;16.00;99.20;;;;;;5103362;28;20252;-65
2023/05/20 02:39:48;;;;;;;9.00;7.47;;;16.00;99.20;;;;;;5091375;28;20203;-65
2023/05/20 02:42:15;;;;;;;12.03;7.73;;;16.00;99.20;;;;;;5088544;28;20204;-64
2023/05/20 02:44:42;;;;;;;12.37;8.07;;;16.00;99.30;;;;;;5106869;28;20197;-64
2023/05/20 02:47:13;;;;;;;16.77;8.40;;;16.00;99.30;;;;;;5091180;28;20205;-64
2023/05/20 02:49:45;;;;;;;11.37;7.13;;;16.00;99.30;;;;;;5095505;28;20205;-64
2023/05/20 02:52:15;;;;;;;11.60;7.97;;;16.00;99.20;;;;;;5094935;28;20202;-65
2023/05/20 02:54:42;;;;;;;14.83;8.57;;;16.00;99.20;;;;;;5086683;28;20220;-65
2023/05/20 02:57:09;;;;;;;14.53;8.33;;;16.00;99.20;;;;;;5094964;28;20297;-64
2023/05/20 02:59:36;;;;;;;13.33;8.60;;;16.00;99.20;;;;;;5090497;28;20231;-65
2023/05/20 03:02:03;;;;;;;11.63;8.33;;;16.00;99.20;;;;;;5090817;28;20213;-64
2023/05/20 03:04:37;;;;;;;17.83;8.90;;;15.90;99.20;;;;;;5094763;28;20235;-64
2023/05/20 03:07:08;;;;;;;16.33;8.30;;;15.90;99.20;;;;;;5097866;28;20193;-65
2023/05/20 03:09:36;;;;;;;11.97;7.83;;;15.90;99.20;;;;;;5106656;28;20208;-64
2023/05/20 03:12:05;;;;;;;11.07;8.43;;;15.90;99.20;;;;;;5104305;28;20620;-64
2023/05/20 03:14:32;;;;;;;14.90;8.37;;;15.90;99.20;;;;;;5089980;28;20201;-64
2023/05/20 03:16:59;;;;;;;12.60;8.47;;;15.90;99.50;;;;;;5105694;28;20205;-64
2023/05/20 03:19:29;;;;;;;11.47;8.13;;;15.90;99.20;;;;;;5091170;28;20234;-64
2023/05/20 03:21:56;;;;;;;13.70;8.23;;;15.90;99.30;;;;;;5087371;28;20215;-64
2023/05/20 03:24:24;;;;;;;13.67;8.40;;;15.90;99.30;;;;;;5104803;28;20204;-65
2023/05/20 03:26:51;;;;;;;13.17;7.90;;;15.90;99.30;;;;;;5090132;28;20224;-65
2023/05/20 03:29:22;;;;;;;14.30;8.57;;;15.90;99.30;;;;;;5104593;28;20224;-64
2023/05/20 03:31:49;;;;;;;10.60;8.20;;;15.90;99.40;;;;;;5088608;28;20845;-64
2023/05/20 03:34:18;;;;;;;11.47;8.47;;;15.90;99.40;;;;;;5104669;28;20231;-64
2023/05/20 03:36:50;;;;;;;15.13;8.90;;;15.80;99.40;;;;;;5066798;28;20295;-65
2023/05/20 03:39:19;;;;;;;9.50;8.27;;;15.80;99.40;;;;;;5083707;28;20249;-65
2023/05/20 03:41:46;;;;;;;13.57;8.67;;;15.80;99.40;;;;;;5093219;28;20296;-64
2023/05/20 03:44:14;;;;;;;15.17;7.73;;;15.80;99.40;;;;;;5088923;28;20213;-64
2023/05/20 03:46:42;;;;;;;12.47;7.53;;;15.80;99.40;;;;;;5092559;28;20203;-64
2023/05/20 03:49:12;;;;;;;13.47;7.53;;;15.80;99.40;;;;;;5084581;28;20296;-63
2023/05/20 03:51:39;;;;;;;11.80;7.93;;;15.80;99.50;;;;;;5084254;28;20676;-64
2023/05/20 03:54:10;;;;;;;9.97;8.17;;;15.80;99.50;;;;;;5085121;28;20209;-64
2023/05/20 03:56:39;;;;;;;10.87;7.77;;;15.80;99.50;;;;;;5082453;28;20270;-64
2023/05/20 03:59:06;;;;;;;12.07;8.33;;;15.80;99.50;;;;;;5080247;28;20594;-64
2023/05/20 04:01:36;;;;;;;10.77;7.20;;;15.80;99.40;;;;;;5087066;28;20206;-64
2023/05/20 04:04:03;;;;;;;9.53;7.97;;;15.80;99.40;;;;;;5089599;28;20225;-64
2023/05/20 04:06:31;;;;;;;11.33;7.73;;;15.80;99.30;;;;;;5085470;28;20279;-65
2023/05/20 04:09:00;;;;;;;13.20;7.33;;;15.70;99.30;;;;;;5084889;28;20232;-64
2023/05/20 04:11:27;;;;;;;15.90;7.83;;;15.70;99.30;;;;;;5083887;28;20312;-64
2023/05/20 04:13:54;;;;;;;11.97;7.57;;;15.80;99.30;;;;;;5086924;28;20195;-64
2023/05/20 04:16:22;;;;;;;11.27;7.47;;;15.80;99.30;;;;;;5090063;28;20265;-64
2023/05/20 04:18:51;;;;;;;13.87;8.10;;;15.80;99.40;;;;;;5092033;28;20225;-64
2023/05/20 04:21:18;;;;;;;13.93;7.80;;;15.80;99.40;;;;;;5089318;28;20206;-65
2023/05/20 04:23:45;;;;;;;11.37;7.33;;;15.80;99.40;;;;;;5089117;28;20193;-64
2023/05/20 04:26:13;;;;;;;16.30;8.70;;;15.80;99.40;;;;;;5083921;28;20724;-64
2023/05/20 04:28:42;;;;;;;11.73;7.33;;;15.80;99.40;;;;;;5089235;28;20209;-64
2023/05/20 04:31:10;;;;;;;14.43;8.73;;;15.80;99.40;;;;;;5089954;28;20310;-65
2023/05/20 04:33:38;;;;;;;11.97;8.53;;;15.80;99.40;;;;;;5086575;28;20214;-64
2023/05/20 04:36:08;;;;;;;12.97;8.30;;;15.80;99.40;;;;;;5093885;28;20611;-64
2023/05/20 04:38:36;;;;;;;13.37;8.30;;;15.90;99.80;;;;;;5089351;28;20224;-65
2023/05/20 04:41:03;;;;;;;10.37;8.60;;;15.90;99.50;;;;;;5086432;28;20198;-65
2023/05/20 04:43:33;;;;;;;15.43;8.27;;;15.90;99.50;;;;;;5087994;28;20559;-64
2023/05/20 04:46:04;;;;;;;11.23;8.57;;;15.90;99.50;;;;;;5082504;28;20209;-65
2023/05/20 04:48:32;;;;;;;13.80;8.30;;;15.90;99.40;;;;;;5082333;28;20198;-65
2023/05/20 04:50:59;;;;;;;11.40;8.63;;;15.90;99.40;;;;;;5100355;28;20517;-65
2023/05/20 04:53:30;;;;;;;12.87;9.13;;;15.90;99.40;;;;;;5086392;28;20663;-65
2023/05/20 04:55:57;;;;;;;11.37;8.27;;;15.90;99.50;;;;;;5084634;28;20202;-64
2023/05/20 04:58:24;;;;;;;10.53;8.83;;;15.90;99.50;;;;;;5082164;28;20225;-64
2023/05/20 05:00:52;;;;;;;10.07;7.80;;;15.90;99.40;;;;;;5085295;28;20203;-64
2023/05/20 05:03:19;;;;;;;11.37;7.80;;;16.00;99.40;;;;;;5082238;28;20203;-64
2023/05/20 05:05:49;;;;;;;12.43;8.50;;;16.00;99.40;;;;;;5087315;28;20221;-64
2023/05/20 05:08:16;;;;;;;12.83;8.90;;;16.00;99.30;;;;;;5086299;28;20213;-65
2023/05/20 05:10:48;;;;;;;11.70;9.03;;;16.00;99.30;;;;;;5082454;28;20201;-64
2023/05/20 05:13:19;;;;;;;10.87;8.00;;;16.10;99.40;;;;;;5088852;28;20225;-64
2023/05/20 05:15:47;;;;;;;10.67;7.67;;;16.10;99.40;;;;;;5091647;28;20200;-64
2023/05/20 05:18:17;;;;;;;14.47;8.53;;;16.10;99.40;;;;;;5083987;28;20221;-65
2023/05/20 05:20:45;;;;;;;12.73;9.43;;;16.10;99.30;;;;;;5081834;28;20286;-64
2023/05/20 05:23:13;;;;;;;14.67;9.47;;;16.20;99.30;;;;;;5083325;28;20594;-64
2023/05/20 05:25:40;;;;;;;10.20;9.13;;;16.20;99.30;;;;;;5084523;28;20198;-64
2023/05/20 05:28:07;;;;;;;14.00;9.07;;;16.20;99.20;;;;;;5085059;28;20255;-64
2023/05/20 05:30:36;;;;;;;12.77;9.50;;;16.30;99.30;;;;;;5080674;28;20195;-64
2023/05/20 05:33:04;;;;;;;12.10;9.83;;;16.30;99.30;;;;;;5088152;28;20202;-64
2023/05/20 05:35:31;;;;;;;12.87;9.93;;;16.30;99.20;;;;;;5081550;28;20700;-64
2023/05/20 05:37:59;;;;;;;12.93;9.97;;;16.30;99.10;;;;;;5091181;28;20194;-64
2023/05/20 05:40:26;;;;;;;11.93;8.77;;;16.30;99.10;;;;;;5088292;28;20532;-64
2023/05/20 05:42:53;;;;;;;15.50;8.97;;;16.40;99.10;;;;;;5093297;28;20188;-64
2023/05/20 05:45:21;;;;;;;15.00;9.40;;;16.40;99.10;;;;;;5102804;28;20647;-64
2023/05/20 05:47:48;;;;;;;10.90;9.67;;;16.40;99.00;;;;;;5084713;28;20198;-64
2023/05/20 05:50:15;;;;;;;12.87;9.37;;;16.40;99.00;;;;;;5089342;28;20204;-64
2023/05/20 05:52:45;;;;;;;13.80;9.80;;;16.50;99.10;;;;;;5090776;28;20222;-64
2023/05/20 05:55:13;;;;;;;13.80;9.70;;;16.50;99.10;;;;;;5084051;28;20212;-64
2023/05/20 05:57:41;;;;;;;12.47;9.20;;;16.50;99.10;;;;;;5084272;28;20205;-65
2023/05/20 06:00:11;;;;;;;11.60;9.63;;;16.60;99.20;;;;;;5090865;28;20245;-64
2023/05/20 06:02:45;;;;;;;12.93;9.33;;;16.60;99.20;;;;;;5101240;28;20206;-64
2023/05/20 06:05:25;;;;;;;11.10;9.00;;;16.60;99.20;;;;;;5089292;28;20315;-64
2023/05/20 06:07:55;;;;;;;12.97;8.70;;;16.60;99.20;;;;;;5098898;28;20200;-64
2023/05/20 06:10:25;;;;;;;11.77;9.60;;;16.60;99.30;;;;;;5093596;28;20223;-64
2023/05/20 06:12:52;;;;;;;12.03;9.47;;;16.60;99.20;;;;;;5103701;28;20201;-64
2023/05/20 06:15:19;;;;;;;17.87;9.80;;;16.70;99.30;;;;;;5083742;28;20199;-64
2023/05/20 06:17:46;;;;;;;11.67;9.57;;;16.70;99.30;;;;;;5093191;28;20202;-64
2023/05/20 06:20:14;;;;;;;12.60;8.83;;;16.80;99.30;;;;;;5090343;28;20538;-64
2023/05/20 06:22:42;;;;;;;12.27;9.07;;;16.80;99.30;;;;;;5093122;28;20515;-65
2023/05/20 06:25:13;;;;;;;13.77;9.40;;;16.80;99.30;;;;;;5086010;28;20618;-64
2023/05/20 06:27:40;;;;;;;11.63;9.40;;;16.80;99.20;;;;;;5105793;28;20195;-64
2023/05/20 06:30:11;;;;;;;16.27;10.10;;;16.90;99.20;;;;;;5103866;28;20198;-64
2023/05/20 06:32:38;;;;;;;15.23;9.60;;;16.90;99.10;;;;;;5095784;28;20273;-64
2023/05/20 06:35:05;;;;;;;12.33;9.50;;;17.00;99.10;;;;;;5079986;28;20252;-64
2023/05/20 06:37:32;;;;;;;13.43;10.27;;;17.00;99.10;;;;;;5093688;28;20707;-64
2023/05/20 06:40:00;;;;;;;13.53;9.87;;;17.10;99.20;;;;;;5107526;28;20217;-64
2023/05/20 06:42:27;;;;;;;12.37;9.50;;;17.10;99.20;;;;;;5103501;28;20193;-64
2023/05/20 06:45:02;;;;;;;11.03;9.33;;;17.20;99.20;;;;;;5098032;28;20198;-64
2023/05/20 06:47:40;;;;;;;14.97;10.30;;;17.20;99.10;;;;;;5094209;28;20297;-64
2023/05/20 06:50:08;;;;;;;11.60;9.17;;;17.20;99.10;;;;;;5094526;28;20533;-64
2023/05/20 06:52:39;;;;;;;13.73;9.97;;;17.30;99.10;;;;;;5089033;28;20622;-64
2023/05/20 06:55:08;;;;;;;11.97;9.47;;;17.30;99.00;;;;;;5090208;28;20300;-64
2023/05/20 06:57:35;;;;;;;12.33;9.63;;;17.30;99.00;;;;;;5089940;28;20220;-64
2023/05/20 07:00:04;;;;;;;13.87;10.30;;;17.30;98.90;;;;;;5092459;28;20672;-63
2023/05/20 07:02:37;;;;;;;14.70;9.97;;;17.30;98.90;;;;;;5094739;28;20590;-64
2023/05/20 07:05:07;;;;;;;11.10;9.43;;;17.30;98.90;;;;;;5092582;28;20537;-62
2023/05/20 07:07:35;;;;;;;14.07;9.70;;;17.30;98.80;;;;;;5091330;28;20285;-65
2023/05/20 07:10:04;;;;;;;14.07;10.23;;;17.30;98.80;;;;;;5097067;28;20222;-63
2023/05/20 07:12:34;;;;;;;15.37;11.00;;;17.30;98.80;;;;;;5089268;28;20215;-64
2023/05/20 07:15:03;;;;;;;16.23;10.60;;;17.30;98.80;;;;;;5087697;28;20243;-64
2023/05/20 07:17:33;;;;;;;12.40;10.27;;;17.30;98.80;;;;;;5087478;28;20589;-65
2023/05/20 07:20:01;;;;;;;13.80;10.07;;;17.30;98.80;;;;;;5088585;28;20214;-64
2023/05/20 07:22:29;;;;;;;12.77;10.50;;;17.20;98.80;;;;;;5096742;28;20213;-64
2023/05/20 07:25:08;;;;;;;15.13;10.07;;;17.20;98.80;;;;;;5106921;28;20189;-63
2023/05/20 07:27:38;;;;;;;14.47;10.73;;;17.20;98.80;;;;;;5088318;28;20202;-63
2023/05/20 07:30:05;;;;;;;12.00;10.80;;;17.20;98.80;;;;;;5086056;28;20195;-63
2023/05/20 07:32:36;;;;;;;15.80;11.00;;;17.20;98.80;;;;;;5090884;28;20205;-63
2023/05/20 07:35:05;;;;;;;14.90;9.97;;;17.20;98.90;;;;;;5096912;28;20206;-63
2023/05/20 07:37:32;;;;;;;15.43;10.77;;;17.20;98.90;;;;;;5091444;28;20277;-62
2023/05/20 07:40:02;;;;;;;15.87;10.63;;;17.20;98.90;;;;;;5073217;28;20666;-63
2023/05/20 07:42:29;;;;;;;13.83;11.00;;;17.20;98.90;;;;;;5106166;28;20203;-63
2023/05/20 07:44:59;;;;;;;13.47;10.63;;;17.20;98.90;;;;;;5097901;28;20649;-64
2023/05/20 07:47:26;;;;;;;16.67;10.60;;;17.20;99.00;;;;;;5086350;28;20210;-64
2023/05/20 07:49:54;;;;;;;16.17;10.80;;;17.20;99.00;;;;;;5095626;28;20208;-64
2023/05/20 07:52:23;;;;;;;14.97;12.13;;;17.30;99.10;;;;;;5094762;28;20203;-64
2023/05/20 07:54:50;;;;;;;16.70;11.60;;;17.30;99.10;;;;;;5104993;28;20692;-64
2023/05/20 07:57:19;;;;;;;14.77;11.10;;;17.40;99.10;;;;;;5093163;28;20203;-64
2023/05/20 07:59:46;;;;;;;13.83;10.77;;;17.40;99.00;;;;;;5090994;28;20236;-64
2023/05/20 08:02:14;;;;;;;14.87;10.57;;;17.50;99.00;;;;;;5096089;28;20636;-64
2023/05/20 08:04:42;;;;;;;13.00;10.60;;;17.50;99.00;;;;;;5105585;28;20262;-64
2023/05/20 08:07:09;;;;;;;14.07;10.80;;;17.60;98.90;;;;;;5087471;28;20592;-64
2023/05/20 08:09:44;;;;;;;13.63;10.30;;;17.60;98.90;;;;;;5092862;28;20237;-64
2023/05/20 08:12:11;;;;;;;11.90;10.33;;;17.70;98.90;;;;;;5094614;28;20205;-64
2023/05/20 08:14:43;;;;;;;12.63;10.37;;;17.70;98.90;;;;;;5085761;28;20196;-64
2023/05/20 08:17:10;;;;;;;14.23;10.83;;;17.70;99.10;;;;;;5095674;28;20285;-64
2023/05/20 08:19:37;;;;;;;13.63;10.57;;;17.80;98.80;;;;;;5101374;28;20217;-64
2023/05/20 08:22:09;;;;;;;15.87;10.13;;;17.80;98.70;;;;;;5086336;28;20211;-64
2023/05/20 08:24:37;;;;;;;11.50;9.53;;;17.90;98.60;;;;;;5086994;28;20241;-64
2023/05/20 08:27:07;;;;;;;12.33;10.27;;;17.90;98.40;;;;;;5093123;28;20196;-64
2023/05/20 08:29:35;;;;;;;16.90;10.47;;;17.90;98.40;;;;;;5090839;28;20251;-64
2023/05/20 08:32:03;;;;;;;12.00;10.70;;;18.00;98.40;;;;;;5095688;28;20223;-64
2023/05/20 08:34:30;;;;;;;15.13;10.63;;;18.00;98.40;;;;;;5094162;28;20515;-64
2023/05/20 08:36:57;;;;;;;12.67;10.30;;;18.00;98.30;;;;;;5081400;28;20334;-64
2023/05/20 08:39:26;;;;;;;15.57;11.07;;;18.10;98.30;;;;;;5084205;28;20218;-64
2023/05/20 08:41:55;;;;;;;15.30;11.10;;;18.10;98.20;;;;;;5082495;28;20188;-64
2023/05/20 08:44:26;;;;;;;14.53;10.73;;;18.10;98.10;;;;;;5090450;28;20647;-64
2023/05/20 08:47:00;;;;;;;17.27;10.40;;;18.10;98.20;;;;;;5081837;28;20207;-64
2023/05/20 08:49:27;;;;;;;13.73;11.27;;;18.10;98.20;;;;;;5100677;28;20578;-64
2023/05/20 08:51:55;;;;;;;16.83;11.30;;;18.20;98.20;;;;;;5081741;28;20218;-64
2023/05/20 08:54:22;;;;;;;16.23;11.80;;;18.10;98.10;;;;;;5084705;28;20277;-64
2023/05/20 08:56:52;;;;;;;16.40;11.60;;;18.20;98.20;;;;;;5083621;28;20295;-64
2023/05/20 08:59:22;;;;;;;12.57;11.23;;;18.20;98.20;;;;;;5082677;28;20265;-64
2023/05/20 09:01:49;;;;;;;15.67;11.53;;;18.20;98.10;;;;;;5090627;28;20599;-64
2023/05/20 09:04:18;;;;;;;12.93;11.53;;;18.10;98.00;;;;;;5083985;28;20208;-64
2023/05/20 09:06:49;;;;;;;15.33;11.17;;;18.00;98.10;;;;;;5088104;28;20198;-64
2023/05/20 09:09:18;;;;;;;14.20;11.23;;;18.00;98.30;;;;;;5084644;28;20218;-64
2023/05/20 09:11:45;;;;;;;12.53;9.97;;;18.00;98.30;;;;;;5083384;28;20215;-64
2023/05/20 09:14:16;;;;;;;16.60;12.13;;;18.00;98.30;;;;;;5079684;28;20219;-64
2023/05/20 09:16:43;;;;;;;11.90;10.53;;;18.00;98.40;;;;;;5083117;28;20258;-64
2023/05/20 09:19:10;;;;;;;15.40;12.07;;;18.00;98.40;;;;;;5078328;28;20211;-64
2023/05/20 09:21:40;;;;;;;13.47;10.97;;;18.00;98.30;;;;;;5082964;28;20204;-64
2023/05/20 09:24:07;;;;;;;19.80;10.83;;;18.10;98.30;;;;;;5085493;28;20643;-64
2023/05/20 09:26:34;;;;;;;17.53;11.87;;;18.10;98.40;;;;;;5082810;28;20198;-64
2023/05/20 09:29:01;;;;;;;14.07;11.03;;;18.10;98.50;;;;;;5087448;28;20198;-64
2023/05/20 09:31:32;;;;;;;14.53;11.47;;;18.20;98.50;;;;;;5081888;28;20492;-64
2023/05/20 09:34:00;;;;;;;13.37;11.43;;;18.30;98.50;;;;;;5083840;28;20262;-64
2023/05/20 09:36:33;;;;;;;14.20;11.70;;;18.30;98.60;;;;;;5086357;28;20233;-64
2023/05/20 09:39:03;;;;;;;14.83;12.33;;;18.50;98.60;;;;;;5085113;28;20200;-64
2023/05/20 09:41:35;;;;;;;15.23;11.90;;;18.50;98.50;;;;;;5088060;28;20255;-64
2023/05/20 09:44:07;;;;;;;15.50;12.43;;;18.60;98.40;;;;;;5079788;28;20568;-64
2023/05/20 09:46:35;;;;;;;14.93;11.33;;;18.70;98.20;;;;;;5083998;28;20200;-64
2023/05/20 09:49:03;;;;;;;14.47;12.10;;;18.80;98.10;;;;;;5082034;28;20584;-64
2023/05/20 09:51:33;;;;;;;14.10;12.53;;;18.80;97.90;;;;;;5081924;28;20242;-64
2023/05/20 09:54:02;;;;;;;13.13;11.10;;;18.80;97.90;;;;;;5083311;28;20197;-63
2023/05/20 09:56:30;;;;;;;13.30;11.60;;;18.80;97.90;;;;;;5081265;28;20189;-64
2023/05/20 09:59:04;;;;;;;15.40;13.00;;;18.80;97.90;;;;;;5084860;28;20207;-64
2023/05/20 10:01:31;;;;;;;13.20;11.77;;;18.80;98.00;;;;;;5079621;28;20213;-64
2023/05/20 10:04:00;;;;;;;13.37;11.97;;;18.90;98.00;;;;;;5083991;28;20445;-63
2023/05/20 10:06:39;;;;;;;15.53;12.43;;;18.90;97.80;;;;;;5084673;28;20234;-64
2023/05/20 10:09:41;;;;;;;13.33;11.57;;;18.90;97.80;;;;;;5080049;28;20224;-64
2023/05/20 10:12:47;;;;;;;14.73;11.90;;;18.90;97.80;;;;;;5084263;28;20193;-64
2023/05/20 10:15:35;;;;;;;14.60;12.97;;;19.00;97.90;;;;;;5083402;28;20191;-64
2023/05/20 10:18:20;;;;;;;14.90;11.83;;;19.00;97.90;;;;;;5084286;28;20193;-64
2023/05/20 10:20:48;;;;;;;14.10;12.63;;;19.10;98.00;;;;;;5083713;28;20634;-64
2023/05/20 10:23:23;;;;;;;14.63;12.47;;;19.10;97.80;;;;;;5082539;28;20262;-64
2023/05/20 10:25:55;;;;;;;13.83;12.27;;;19.20;97.80;;;;;;5091643;28;20595;-64
2023/05/20 10:28:35;;;;;;;15.00;13.40;;;19.30;97.80;;;;;;5085503;28;20196;-64
2023/05/20 10:31:17;;;;;;;15.43;12.97;;;19.30;97.50;;;;;;5080126;28;20200;-64
2023/05/20 10:33:45;;;;;;;13.23;11.83;;;19.30;97.30;;;;;;5091393;28;20232;-64
2023/05/20 10:36:29;;;;;;;14.23;12.40;;;19.30;96.90;;;;;;5082335;28;20279;-64
2023/05/20 10:38:59;;;;;;;17.33;12.50;;;19.30;97.00;;;;;;5090694;28;20253;-64
2023/05/20 10:41:28;;;;;;;14.10;12.50;;;19.30;96.70;;;;;;5100023;28;20658;-64
2023/05/20 10:44:02;;;;;;;15.60;12.10;;;19.40;96.60;;;;;;5104835;28;20224;-64
2023/05/20 10:46:30;;;;;;;18.80;12.70;;;19.30;96.80;;;;;;5104519;28;20234;-64
2023/05/20 10:49:20;;;;;;;15.67;11.87;;;19.40;96.80;;;;;;5101942;28;20728;-64
2023/05/20 10:51:53;;;;;;;14.83;12.00;;;19.40;96.80;;;;;;5104621;28;20208;-64
2023/05/20 10:54:24;;;;;;;14.43;11.53;;;19.40;96.60;;;;;;5106360;28;20193;-64
2023/05/20 10:56:52;;;;;;;15.63;12.07;;;19.40;96.60;;;;;;5100679;28;20204;-63
2023/05/20 10:59:20;;;;;;;14.70;11.50;;;19.30;96.60;;;;;;5105329;28;20223;-64
2023/05/20 11:01:48;;;;;;;14.77;12.20;;;19.30;96.60;;;;;;5103248;28;20212;-64
2023/05/20 11:04:19;;;;;;;14.57;12.10;;;19.30;96.60;;;;;;5107939;28;20278;-64
2023/05/20 11:06:52;;;;;;;15.67;11.90;;;19.30;96.70;;;;;;5107282;28;20204;-64
2023/05/20 11:09:20;;;;;;;18.77;12.33;;;19.20;96.70;;;;;;5105663;28;20275;-64
2023/05/20 11:11:52;;;;;;;16.17;12.60;;;19.20;96.80;;;;;;5106440;28;20706;-64
2023/05/20 11:14:20;;;;;;;13.93;11.97;;;19.20;96.90;;;;;;5106465;28;20206;-64
2023/05/20 11:16:52;;;;;;;14.13;12.23;;;19.20;97.00;;;;;;5108367;28;20599;-64
2023/05/20 11:19:20;;;;;;;13.90;12.27;;;19.20;97.10;;;;;;5107252;28;20257;-64
2023/05/20 11:21:47;;;;;;;16.47;12.10;;;19.30;97.20;;;;;;5111414;28;20596;-64
2023/05/20 11:24:28;;;;;;;13.80;12.23;;;19.30;97.20;;;;;;5105702;28;20204;-64
2023/05/20 11:26:56;;;;;;;19.93;12.27;;;19.30;97.30;;;;;;5106100;28;20261;-64
2023/05/20 11:29:26;;;;;;;14.83;12.47;;;19.40;97.10;;;;;;5104494;28;20195;-64
2023/05/20 11:31:56;;;;;;;17.13;12.17;;;19.40;97.00;;;;;;5103398;28;20212;-64
2023/05/20 11:34:23;;;;;;;15.10;12.83;;;19.40;96.80;;;;;;5103669;28;20265;-66
2023/05/20 11:36:59;;;;;;;14.10;12.60;;;19.50;96.80;;;;;;5099956;28;20228;-64
2023/05/20 11:39:29;;;;;;;17.07;13.50;;;19.50;96.70;;;;;;5106893;28;20200;-64
2023/05/20 11:41:57;;;;;;;14.47;12.97;;;19.60;96.50;;;;;;5104698;28;20231;-64
2023/05/20 11:44:25;;;;;;;17.73;12.50;;;19.60;96.40;;;;;;5105243;28;20207;-64
2023/05/20 11:46:59;;;;;;;19.87;12.57;;;19.70;96.30;;;;;;5100209;28;20683;-64
2023/05/20 11:49:26;;;;;;;18.60;13.17;;;19.70;96.30;;;;;;5106725;28;20195;-64
2023/05/20 11:51:53;;;;;;;16.73;14.20;;;19.70;96.10;;;;;;5103093;28;20197;-64
2023/05/20 11:54:23;;;;;;;18.67;12.77;;;19.70;95.90;;;;;;5105070;28;20231;-64
2023/05/20 11:56:54;;;;;;;17.60;13.53;;;19.70;96.00;;;;;;5109418;28;20207;-64
2023/05/20 11:59:23;;;;;;;18.60;13.93;;;19.70;96.10;;;;;;5106442;28;20242;-65
2023/05/20 12:01:50;;;;;;;14.83;13.23;;;19.70;96.10;;;;;;5104325;28;20221;-64
2023/05/20 12:04:20;;;;;;;15.90;13.93;;;19.70;96.10;;;;;;5102390;28;20200;-64
2023/05/20 12:06:47;;;;;;;17.90;13.77;;;19.70;96.10;;;;;;5104737;28;20215;-64
2023/05/20 12:09:17;;;;;;;18.07;14.83;;;19.70;96.00;;;;;;5102214;28;20639;-64
2023/05/20 12:11:44;;;;;;;17.43;14.53;;;19.70;96.00;;;;;;5105495;28;20624;-64
2023/05/20 12:14:11;;;;;;;16.13;13.93;;;19.70;95.90;;;;;;5105096;28;20197;-64
2023/05/20 12:16:40;;;;;;;18.63;14.90;;;19.60;96.00;;;;;;5103528;28;20209;-64
2023/05/20 12:19:10;;;;;;;16.83;14.77;;;19.60;96.00;;;;;;5108544;28;20284;-64
2023/05/20 12:21:37;;;;;;;23.57;15.50;;;19.70;96.20;;;;;;5103787;28;20280;-64
2023/05/20 12:24:07;;;;;;;18.40;14.87;;;19.70;96.20;;;;;;5105373;28;20578;-65
2023/05/20 12:26:34;;;;;;;17.00;14.80;;;19.70;96.10;;;;;;5096112;28;20941;-65
2023/05/20 12:29:01;;;;;;;17.70;15.40;;;19.70;96.10;;;;;;5106243;28;20217;-64
2023/05/20 12:31:28;;;;;;;17.33;15.07;;;19.70;96.30;;;;;;5107303;28;20562;-64
2023/05/20 12:33:58;;;;;;;16.27;13.93;;;19.80;96.50;;;;;;5107884;28;20193;-64
2023/05/20 12:36:26;;;;;;;17.20;13.93;;;19.80;96.30;;;;;;5104854;28;20237;-64
2023/05/20 12:38:53;;;;;;;17.13;14.50;;;19.80;96.20;;;;;;5109638;28;20205;-64
2023/05/20 12:41:21;;;;;;;16.10;14.30;;;19.80;95.90;;;;;;5106370;28;20313;-64
2023/05/20 12:43:48;;;;;;;17.87;14.33;;;19.80;95.90;;;;;;5105371;28;20234;-64